Terminal Aerodrome Forecast
Issued by NWS Sterling, VA

Home | Current Version | Previous Version | Text Only | Print | Product List | Glossary On
Versions: 1 2 3 4 5 6 7 8 9 10 11 12 13 14 15 16 17 18 19 20 21 22 23 24 25
285
FTUS41 KLWX 301446 AAA
TAFIAD
TAF AMD
KIAD 301446Z 3015/3118 17006KT P6SM BKN110
     FM301800 17007KT P6SM TSRA BKN050CB
     FM302100 14006KT 5SM TSRA BKN040CB
     FM310000 15006KT 6SM TSRA OVC040CB
     FM310300 15005KT 6SM -SHRA VCTS OVC040CB
     FM310600 16004KT 3SM BR BKN045
     FM311200 VRB03KT P6SM BKN150=

USA.gov is the U.S. government's official web portal to all federal, state and local government web resources and services.